sensor_id;sensor_type;location;lat;lon;timestamp;P1;durP1;ratioP1;P2;durP2;ratioP2
34471;SDS011;20710;49.976;19.836;2023-04-06T00:01:16;23.50;;;11.30;;
34471;SDS011;20710;49.976;19.836;2023-04-06T00:07:19;18.70;;;10.40;;
34471;SDS011;20710;49.976;19.836;2023-04-06T00:13:20;35.40;;;16.00;;
34471;SDS011;20710;49.976;19.836;2023-04-06T00:19:23;53.90;;;20.00;;
34471;SDS011;20710;49.976;19.836;2023-04-06T00:25:44;35.10;;;15.60;;
34471;SDS011;20710;49.976;19.836;2023-04-06T00:32:35;35.10;;;14.30;;
34471;SDS011;20710;49.976;19.836;2023-04-06T00:39:11;28.60;;;14.00;;
34471;SDS011;20710;49.976;19.836;2023-04-06T00:45:13;29.00;;;12.80;;
34471;SDS011;20710;49.976;19.836;2023-04-06T00:51:23;23.30;;;10.80;;
34471;SDS011;20710;49.976;19.836;2023-04-06T00:57:24;20.10;;;11.10;;
34471;SDS011;20710;49.976;19.836;2023-04-06T01:03:29;15.50;;;8.00;;
34471;SDS011;20710;49.976;19.836;2023-04-06T01:09:32;19.50;;;10.40;;
34471;SDS011;20710;49.976;19.836;2023-04-06T01:15:35;22.00;;;11.10;;
34471;SDS011;20710;49.976;19.836;2023-04-06T01:21:42;27.50;;;12.90;;
34471;SDS011;20710;49.976;19.836;2023-04-06T01:28:10;24.00;;;11.40;;
34471;SDS011;20710;49.976;19.836;2023-04-06T01:34:30;20.40;;;11.20;;
34471;SDS011;20710;49.976;19.836;2023-04-06T01:40:35;24.50;;;13.00;;
34471;SDS011;20710;49.976;19.836;2023-04-06T01:46:36;27.30;;;13.60;;
34471;SDS011;20710;49.976;19.836;2023-04-06T01:52:39;23.30;;;12.40;;
34471;SDS011;20710;49.976;19.836;2023-04-06T01:58:42;20.10;;;10.50;;
34471;SDS011;20710;49.976;19.836;2023-04-06T02:04:44;25.10;;;12.30;;
34471;SDS011;20710;49.976;19.836;2023-04-06T02:10:47;22.40;;;11.80;;
34471;SDS011;20710;49.976;19.836;2023-04-06T02:17:01;26.90;;;13.10;;
34471;SDS011;20710;49.976;19.836;2023-04-06T02:23:02;24.50;;;13.10;;
34471;SDS011;20710;49.976;19.836;2023-04-06T02:29:07;28.70;;;14.50;;
34471;SDS011;20710;49.976;19.836;2023-04-06T02:35:12;25.40;;;12.30;;
34471;SDS011;20710;49.976;19.836;2023-04-06T02:41:14;29.40;;;13.40;;
34471;SDS011;20710;49.976;19.836;2023-04-06T02:47:16;26.50;;;13.80;;
34471;SDS011;20710;49.976;19.836;2023-04-06T02:53:21;25.40;;;13.80;;
34471;SDS011;20710;49.976;19.836;2023-04-06T02:59:22;28.50;;;14.60;;
34471;SDS011;20710;49.976;19.836;2023-04-06T03:05:33;27.40;;;14.60;;
34471;SDS011;20710;49.976;19.836;2023-04-06T03:11:34;28.40;;;14.40;;
34471;SDS011;20710;49.976;19.836;2023-04-06T03:17:37;30.90;;;16.60;;
34471;SDS011;20710;49.976;19.836;2023-04-06T03:23:41;30.70;;;15.60;;
34471;SDS011;20710;49.976;19.836;2023-04-06T03:29:43;25.80;;;14.90;;
34471;SDS011;20710;49.976;19.836;2023-04-06T03:35:46;31.60;;;14.70;;
34471;SDS011;20710;49.976;19.836;2023-04-06T03:41:48;31.60;;;15.90;;
34471;SDS011;20710;49.976;19.836;2023-04-06T03:48:06;34.20;;;14.00;;
34471;SDS011;20710;49.976;19.836;2023-04-06T03:54:10;32.50;;;17.80;;
34471;SDS011;20710;49.976;19.836;2023-04-06T04:00:11;37.90;;;17.70;;
34471;SDS011;20710;49.976;19.836;2023-04-06T04:06:16;35.30;;;15.70;;
34471;SDS011;20710;49.976;19.836;2023-04-06T04:12:18;35.20;;;17.00;;
34471;SDS011;20710;49.976;19.836;2023-04-06T04:18:19;35.80;;;16.80;;
34471;SDS011;20710;49.976;19.836;2023-04-06T04:24:20;28.80;;;16.10;;
34471;SDS011;20710;49.976;19.836;2023-04-06T04:30:25;25.40;;;14.40;;
34471;SDS011;20710;49.976;19.836;2023-04-06T04:36:31;26.50;;;14.30;;
34471;SDS011;20710;49.976;19.836;2023-04-06T04:42:34;30.60;;;14.90;;
34471;SDS011;20710;49.976;19.836;2023-04-06T04:48:36;34.90;;;16.30;;
34471;SDS011;20710;49.976;19.836;2023-04-06T04:54:38;35.60;;;15.80;;
34471;SDS011;20710;49.976;19.836;2023-04-06T05:00:50;32.20;;;16.10;;
34471;SDS011;20710;49.976;19.836;2023-04-06T05:07:29;33.80;;;16.10;;
34471;SDS011;20710;49.976;19.836;2023-04-06T05:13:24;40.60;;;19.20;;
34471;SDS011;20710;49.976;19.836;2023-04-06T05:19:25;51.30;;;25.10;;
34471;SDS011;20710;49.976;19.836;2023-04-06T05:25:28;62.40;;;29.20;;
34471;SDS011;20710;49.976;19.836;2023-04-06T05:31:31;51.90;;;27.60;;
34471;SDS011;20710;49.976;19.836;2023-04-06T05:37:33;43.70;;;25.80;;
34471;SDS011;20710;49.976;19.836;2023-04-06T05:43:37;54.80;;;26.60;;
34471;SDS011;20710;49.976;19.836;2023-04-06T05:49:38;65.40;;;26.80;;
34471;SDS011;20710;49.976;19.836;2023-04-06T05:55:43;50.60;;;26.20;;
34471;SDS011;20710;49.976;19.836;2023-04-06T06:01:48;44.50;;;21.00;;
34471;SDS011;20710;49.976;19.836;2023-04-06T06:07:50;37.30;;;19.00;;
34471;SDS011;20710;49.976;19.836;2023-04-06T06:13:52;42.30;;;19.60;;
34471;SDS011;20710;49.976;19.836;2023-04-06T06:19:54;34.40;;;18.60;;
34471;SDS011;20710;49.976;19.836;2023-04-06T06:25:58;39.20;;;19.90;;
34471;SDS011;20710;49.976;19.836;2023-04-06T06:32:00;33.70;;;18.50;;
34471;SDS011;20710;49.976;19.836;2023-04-06T06:38:01;33.90;;;17.10;;
34471;SDS011;20710;49.976;19.836;2023-04-06T06:44:03;30.40;;;15.50;;
34471;SDS011;20710;49.976;19.836;2023-04-06T06:50:05;31.30;;;16.30;;
34471;SDS011;20710;49.976;19.836;2023-04-06T06:56:08;29.80;;;14.40;;
34471;SDS011;20710;49.976;19.836;2023-04-06T07:02:21;23.10;;;13.00;;
34471;SDS011;20710;49.976;19.836;2023-04-06T07:08:24;35.70;;;18.10;;
34471;SDS011;20710;49.976;19.836;2023-04-06T07:14:46;23.90;;;12.80;;
34471;SDS011;20710;49.976;19.836;2023-04-06T07:21:08;63.40;;;27.00;;
34471;SDS011;20710;49.976;19.836;2023-04-06T07:27:31;16.10;;;9.00;;
34471;SDS011;20710;49.976;19.836;2023-04-06T07:33:33;29.90;;;10.70;;
34471;SDS011;20710;49.976;19.836;2023-04-06T07:39:57;16.60;;;8.10;;
34471;SDS011;20710;49.976;19.836;2023-04-06T07:45:59;27.90;;;13.00;;
34471;SDS011;20710;49.976;19.836;2023-04-06T07:52:01;34.40;;;16.10;;
34471;SDS011;20710;49.976;19.836;2023-04-06T07:58:04;14.20;;;7.90;;
34471;SDS011;20710;49.976;19.836;2023-04-06T08:04:06;13.70;;;7.30;;
34471;SDS011;20710;49.976;19.836;2023-04-06T08:10:08;10.50;;;7.10;;
34471;SDS011;20710;49.976;19.836;2023-04-06T08:16:09;14.40;;;7.90;;
34471;SDS011;20710;49.976;19.836;2023-04-06T08:22:15;13.60;;;7.20;;
34471;SDS011;20710;49.976;19.836;2023-04-06T08:28:16;14.50;;;8.50;;
34471;SDS011;20710;49.976;19.836;2023-04-06T08:34:18;12.70;;;6.90;;
34471;SDS011;20710;49.976;19.836;2023-04-06T08:46:51;10.40;;;7.10;;
34471;SDS011;20710;49.976;19.836;2023-04-06T08:53:37;12.30;;;6.60;;
34471;SDS011;20710;49.976;19.836;2023-04-06T08:59:49;13.40;;;7.10;;
34471;SDS011;20710;49.976;19.836;2023-04-06T09:05:51;11.20;;;6.70;;
34471;SDS011;20710;49.976;19.836;2023-04-06T09:12:30;10.60;;;6.70;;
34471;SDS011;20710;49.976;19.836;2023-04-06T09:18:33;12.00;;;6.40;;
34471;SDS011;20710;49.976;19.836;2023-04-06T09:24:48;11.00;;;7.50;;
34471;SDS011;20710;49.976;19.836;2023-04-06T09:30:50;11.60;;;6.90;;
34471;SDS011;20710;49.976;19.836;2023-04-06T09:36:52;13.20;;;7.40;;
34471;SDS011;20710;49.976;19.836;2023-04-06T09:42:55;13.70;;;7.70;;
34471;SDS011;20710;49.976;19.836;2023-04-06T09:48:59;13.90;;;7.90;;
34471;SDS011;20710;49.976;19.836;2023-04-06T09:55:11;14.80;;;8.20;;
34471;SDS011;20710;49.976;19.836;2023-04-06T10:01:45;15.20;;;8.30;;
34471;SDS011;20710;49.976;19.836;2023-04-06T10:07:50;13.10;;;7.80;;
34471;SDS011;20710;49.976;19.836;2023-04-06T10:13:55;13.00;;;8.20;;
34471;SDS011;20710;49.976;19.836;2023-04-06T10:19:59;9.40;;;6.10;;
34471;SDS011;20710;49.976;19.836;2023-04-06T10:26:14;14.10;;;6.40;;
34471;SDS011;20710;49.976;19.836;2023-04-06T10:32:17;11.50;;;6.40;;
34471;SDS011;20710;49.976;19.836;2023-04-06T10:38:19;8.90;;;5.40;;
34471;SDS011;20710;49.976;19.836;2023-04-06T10:56:57;13.20;;;5.90;;
34471;SDS011;20710;49.976;19.836;2023-04-06T11:02:59;10.00;;;5.70;;
34471;SDS011;20710;49.976;19.836;2023-04-06T11:09:03;12.30;;;6.70;;
34471;SDS011;20710;49.976;19.836;2023-04-06T11:15:04;18.40;;;9.50;;
34471;SDS011;20710;49.976;19.836;2023-04-06T11:21:07;18.20;;;8.80;;
34471;SDS011;20710;49.976;19.836;2023-04-06T11:27:08;14.90;;;8.50;;
34471;SDS011;20710;49.976;19.836;2023-04-06T11:33:09;20.80;;;9.60;;
34471;SDS011;20710;49.976;19.836;2023-04-06T11:39:12;13.70;;;8.50;;
34471;SDS011;20710;49.976;19.836;2023-04-06T11:45:14;16.20;;;8.60;;
34471;SDS011;20710;49.976;19.836;2023-04-06T11:51:22;14.00;;;8.40;;
34471;SDS011;20710;49.976;19.836;2023-04-06T11:57:46;14.10;;;8.10;;
34471;SDS011;20710;49.976;19.836;2023-04-06T12:04:08;19.40;;;11.10;;
34471;SDS011;20710;49.976;19.836;2023-04-06T12:10:11;18.50;;;10.30;;
34471;SDS011;20710;49.976;19.836;2023-04-06T12:16:33;22.70;;;14.30;;
34471;SDS011;20710;49.976;19.836;2023-04-06T12:22:35;17.60;;;10.00;;
34471;SDS011;20710;49.976;19.836;2023-04-06T12:28:37;24.40;;;15.90;;
34471;SDS011;20710;49.976;19.836;2023-04-06T12:34:39;18.90;;;12.00;;
34471;SDS011;20710;49.976;19.836;2023-04-06T12:40:46;27.20;;;14.40;;
34471;SDS011;20710;49.976;19.836;2023-04-06T12:46:51;23.60;;;12.30;;
34471;SDS011;20710;49.976;19.836;2023-04-06T12:52:53;21.40;;;12.10;;
34471;SDS011;20710;49.976;19.836;2023-04-06T12:58:56;18.30;;;11.70;;
34471;SDS011;20710;49.976;19.836;2023-04-06T13:11:51;24.60;;;12.80;;
34471;SDS011;20710;49.976;19.836;2023-04-06T13:17:52;21.00;;;12.30;;
34471;SDS011;20710;49.976;19.836;2023-04-06T13:24:04;24.60;;;13.40;;
34471;SDS011;20710;49.976;19.836;2023-04-06T13:30:06;22.90;;;13.90;;
34471;SDS011;20710;49.976;19.836;2023-04-06T13:36:08;27.20;;;14.20;;
34471;SDS011;20710;49.976;19.836;2023-04-06T13:42:30;26.90;;;15.90;;
34471;SDS011;20710;49.976;19.836;2023-04-06T13:48:32;27.30;;;14.60;;
34471;SDS011;20710;49.976;19.836;2023-04-06T13:55:58;24.70;;;15.10;;
34471;SDS011;20710;49.976;19.836;2023-04-06T14:02:03;21.20;;;12.80;;
34471;SDS011;20710;49.976;19.836;2023-04-06T14:08:08;20.30;;;13.90;;
34471;SDS011;20710;49.976;19.836;2023-04-06T14:14:37;26.20;;;14.40;;
34471;SDS011;20710;49.976;19.836;2023-04-06T14:21:00;30.90;;;16.10;;
34471;SDS011;20710;49.976;19.836;2023-04-06T14:27:24;28.50;;;16.30;;
34471;SDS011;20710;49.976;19.836;2023-04-06T14:33:26;31.00;;;18.60;;
34471;SDS011;20710;49.976;19.836;2023-04-06T14:46:58;34.60;;;19.50;;
34471;SDS011;20710;49.976;19.836;2023-04-06T14:53:22;32.00;;;19.70;;
34471;SDS011;20710;49.976;19.836;2023-04-06T15:06:57;37.60;;;23.90;;
34471;SDS011;20710;49.976;19.836;2023-04-06T15:14:25;42.50;;;23.00;;
34471;SDS011;20710;49.976;19.836;2023-04-06T15:20:26;43.90;;;26.20;;
34471;SDS011;20710;49.976;19.836;2023-04-06T15:26:57;40.40;;;23.10;;
34471;SDS011;20710;49.976;19.836;2023-04-06T15:40:45;43.10;;;25.70;;
34471;SDS011;20710;49.976;19.836;2023-04-06T15:54:22;43.60;;;22.30;;
34471;SDS011;20710;49.976;19.836;2023-04-06T16:01:28;37.60;;;22.20;;
34471;SDS011;20710;49.976;19.836;2023-04-06T16:08:16;35.70;;;21.10;;
34471;SDS011;20710;49.976;19.836;2023-04-06T16:14:27;34.80;;;20.00;;
34471;SDS011;20710;49.976;19.836;2023-04-06T16:22:33;42.20;;;23.10;;
34471;SDS011;20710;49.976;19.836;2023-04-06T16:36:44;42.60;;;25.70;;
34471;SDS011;20710;49.976;19.836;2023-04-06T16:43:23;46.00;;;27.00;;
34471;SDS011;20710;49.976;19.836;2023-04-06T16:55:57;45.80;;;27.30;;
34471;SDS011;20710;49.976;19.836;2023-04-06T17:03:01;53.90;;;32.70;;
34471;SDS011;20710;49.976;19.836;2023-04-06T17:09:36;35.00;;;23.50;;
34471;SDS011;20710;49.976;19.836;2023-04-06T17:15:39;50.60;;;31.20;;
34471;SDS011;20710;49.976;19.836;2023-04-06T17:21:44;62.50;;;35.80;;
34471;SDS011;20710;49.976;19.836;2023-04-06T17:27:51;57.70;;;33.90;;
34471;SDS011;20710;49.976;19.836;2023-04-06T17:33:57;57.60;;;34.30;;
34471;SDS011;20710;49.976;19.836;2023-04-06T17:40:08;61.50;;;35.50;;
34471;SDS011;20710;49.976;19.836;2023-04-06T17:46:36;61.60;;;33.80;;
34471;SDS011;20710;49.976;19.836;2023-04-06T17:53:14;66.70;;;36.30;;
34471;SDS011;20710;49.976;19.836;2023-04-06T17:59:19;67.60;;;38.10;;
34471;SDS011;20710;49.976;19.836;2023-04-06T18:06:12;64.30;;;36.60;;
34471;SDS011;20710;49.976;19.836;2023-04-06T18:12:15;68.10;;;35.90;;
34471;SDS011;20710;49.976;19.836;2023-04-06T18:24:45;59.70;;;33.50;;
34471;SDS011;20710;49.976;19.836;2023-04-06T18:32:19;62.60;;;34.80;;
34471;SDS011;20710;49.976;19.836;2023-04-06T18:38:21;58.70;;;32.90;;
34471;SDS011;20710;49.976;19.836;2023-04-06T18:59:56;68.10;;;37.00;;
34471;SDS011;20710;49.976;19.836;2023-04-06T19:39:17;61.20;;;34.90;;
34471;SDS011;20710;49.976;19.836;2023-04-06T19:47:06;49.00;;;28.70;;
34471;SDS011;20710;49.976;19.836;2023-04-06T21:05:30;71.50;;;38.40;;
34471;SDS011;20710;49.976;19.836;2023-04-06T21:36:27;98.40;;;49.40;;
34471;SDS011;20710;49.976;19.836;2023-04-06T21:42:39;83.80;;;43.70;;
34471;SDS011;20710;49.976;19.836;2023-04-06T22:05:54;69.50;;;36.80;;
34471;SDS011;20710;49.976;19.836;2023-04-06T22:13:44;67.00;;;37.00;;
34471;SDS011;20710;49.976;19.836;2023-04-06T22:37:10;59.50;;;32.60;;
34471;SDS011;20710;49.976;19.836;2023-04-06T22:45:10;66.60;;;36.00;;
34471;SDS011;20710;49.976;19.836;2023-04-06T22:59:51;56.70;;;32.90;;
34471;SDS011;20710;49.976;19.836;2023-04-06T23:14:19;57.50;;;32.70;;
34471;SDS011;20710;49.976;19.836;2023-04-06T23:37:54;66.30;;;35.60;;
